createdAt,value
2022-10-20T00:04:19.670Z,4.97
2022-10-20T00:06:47.651Z,5.23
2022-10-20T00:09:16.601Z,5.10
2022-10-20T00:11:45.886Z,4.50
2022-10-20T00:14:13.686Z,4.80
2022-10-20T00:16:41.511Z,5.67
2022-10-20T00:19:09.148Z,4.20
2022-10-20T00:21:36.727Z,4.50
2022-10-20T00:24:04.721Z,4.27
2022-10-20T00:26:34.528Z,4.20
2022-10-20T00:29:03.466Z,4.50
2022-10-20T00:31:31.788Z,5.47
2022-10-20T00:33:59.330Z,4.13
2022-10-20T00:36:27.008Z,5.90
2022-10-20T00:38:58.988Z,4.33
2022-10-20T00:41:26.950Z,4.63
2022-10-20T00:43:57.996Z,4.10
2022-10-20T00:46:29.638Z,4.53
2022-10-20T00:48:59.577Z,4.37
2022-10-20T00:51:30.070Z,4.63
2022-10-20T00:54:04.328Z,4.37
2022-10-20T00:56:32.826Z,4.60
2022-10-20T00:59:03.480Z,4.63
2022-10-20T01:01:31.231Z,4.63
2022-10-20T01:03:59.237Z,4.70
2022-10-20T01:06:26.853Z,4.30
2022-10-20T01:08:55.583Z,4.27
2022-10-20T01:11:33.225Z,4.70
2022-10-20T01:14:15.399Z,4.47
2022-10-20T01:16:52.932Z,5.00
2022-10-20T01:19:55.810Z,4.50
2022-10-20T01:22:37.457Z,5.13
2022-10-20T01:25:18.985Z,4.03
2022-10-20T01:27:51.622Z,4.60
2022-10-20T01:30:21.179Z,4.17
2022-10-20T01:33:02.528Z,4.40
2022-10-20T01:35:40.682Z,4.10
2022-10-20T01:38:17.028Z,4.90
2022-10-20T01:40:49.524Z,4.40
2022-10-20T01:43:22.771Z,3.90
2022-10-20T01:45:53.528Z,5.03
2022-10-20T01:48:24.742Z,4.00
2022-10-20T01:50:52.991Z,4.87
2022-10-20T01:53:21.360Z,4.50
2022-10-20T01:55:51.909Z,4.97
2022-10-20T01:58:45.165Z,4.23
2022-10-20T02:01:21.366Z,4.03
2022-10-20T02:03:54.082Z,4.20
2022-10-20T02:06:32.349Z,4.20
2022-10-20T02:09:02.443Z,4.10
2022-10-20T02:11:39.548Z,4.80
2022-10-20T02:14:11.181Z,4.50
2022-10-20T02:16:44.113Z,4.60
2022-10-20T02:19:14.325Z,4.67
2022-10-20T02:21:41.974Z,4.20
2022-10-20T02:24:10.878Z,4.73
2022-10-20T02:26:41.087Z,4.23
2022-10-20T02:29:14.907Z,4.50
2022-10-20T02:31:43.745Z,4.47
2022-10-20T02:34:12.113Z,5.23
2022-10-20T02:36:41.547Z,4.40
2022-10-20T02:39:09.874Z,4.60
2022-10-20T02:41:38.098Z,4.40
2022-10-20T02:44:05.831Z,4.37
2022-10-20T02:46:34.843Z,5.13
2022-10-20T02:49:02.476Z,3.80
2022-10-20T02:51:30.083Z,5.70
2022-10-20T02:53:57.933Z,4.10
2022-10-20T02:56:27.613Z,4.90
2022-10-20T02:58:57.857Z,4.37
2022-10-20T03:01:25.861Z,4.97
2022-10-20T03:03:58.558Z,4.60
2022-10-20T03:06:26.763Z,4.37
2022-10-20T03:08:54.508Z,4.30
2022-10-20T03:11:22.215Z,4.00
2022-10-20T03:13:49.868Z,4.47
2022-10-20T03:16:17.563Z,4.00
2022-10-20T03:18:45.161Z,4.83
2022-10-20T03:21:14.028Z,4.93
2022-10-20T03:23:41.674Z,4.70
2022-10-20T03:26:11.410Z,4.83
2022-10-20T03:28:40.490Z,4.17
2022-10-20T03:31:08.816Z,5.03
2022-10-20T03:33:36.379Z,4.37
2022-10-20T03:36:04.644Z,5.43
2022-10-20T03:38:33.592Z,4.30
2022-10-20T03:43:33.745Z,5.10
2022-10-20T03:46:05.515Z,5.00
2022-10-20T03:48:33.692Z,4.67
2022-10-20T03:51:02.278Z,4.50
2022-10-20T03:53:30.568Z,4.90
2022-10-20T03:55:59.806Z,4.50
2022-10-20T03:58:27.324Z,4.53
2022-10-20T04:00:55.400Z,4.77
2022-10-20T04:03:22.939Z,4.80
2022-10-20T04:05:50.808Z,4.70
2022-10-20T04:08:18.367Z,5.10
2022-10-20T04:10:45.947Z,5.37
2022-10-20T04:13:14.869Z,5.30
2022-10-20T04:15:42.476Z,5.07
2022-10-20T04:18:10.148Z,4.60
2022-10-20T04:20:39.405Z,4.97
2022-10-20T04:23:09.644Z,5.27
2022-10-20T04:25:45.312Z,5.50
2022-10-20T04:28:13.077Z,5.60
2022-10-20T04:30:42.521Z,5.33
2022-10-20T04:33:10.458Z,5.83
2022-10-20T04:35:38.049Z,4.57
2022-10-20T04:38:06.441Z,5.07
2022-10-20T04:40:34.256Z,4.40
2022-10-20T04:43:02.268Z,5.20
2022-10-20T04:45:29.941Z,6.27
2022-10-20T04:47:58.877Z,5.40
2022-10-20T04:50:26.539Z,5.67
2022-10-20T04:52:54.116Z,5.70
2022-10-20T04:55:21.811Z,5.17
2022-10-20T04:57:49.592Z,5.23
2022-10-20T05:00:17.345Z,4.47
2022-10-20T05:02:45.050Z,5.17
2022-10-20T05:05:14.293Z,4.87
2022-10-20T05:07:41.809Z,5.40
2022-10-20T05:10:09.995Z,5.00
2022-10-20T05:12:37.884Z,5.30
2022-10-20T05:15:06.630Z,4.90
2022-10-20T05:17:34.171Z,5.00
2022-10-20T05:20:01.727Z,5.13
2022-10-20T05:22:31.745Z,4.63
2022-10-20T05:25:12.728Z,4.63
2022-10-20T05:27:46.812Z,5.47
2022-10-20T05:30:14.358Z,6.40
2022-10-20T05:32:41.900Z,5.90
2022-10-20T05:35:10.031Z,6.30
2022-10-20T05:37:38.930Z,5.27
2022-10-20T05:40:08.216Z,5.80
2022-10-20T05:42:36.862Z,5.90
2022-10-20T05:45:05.360Z,5.37
2022-10-20T05:47:33.267Z,4.87
2022-10-20T05:50:00.778Z,5.77
2022-10-20T05:52:28.601Z,6.13
2022-10-20T05:54:57.512Z,5.97
2022-10-20T05:57:25.099Z,6.30
2022-10-20T05:59:52.652Z,6.10
2022-10-20T06:02:20.814Z,6.00
2022-10-20T06:04:48.352Z,7.13
2022-10-20T06:07:16.187Z,5.87
2022-10-20T06:09:43.708Z,6.83
2022-10-20T06:12:12.597Z,6.57
2022-10-20T06:14:40.221Z,6.40
2022-10-20T06:17:07.762Z,6.00
2022-10-20T06:19:35.380Z,5.80
2022-10-20T06:22:05.940Z,5.43
2022-10-20T06:24:34.642Z,6.17
2022-10-20T06:27:02.291Z,6.47
2022-10-20T06:29:31.197Z,5.73
2022-10-20T06:31:58.703Z,7.00
2022-10-20T06:34:27.256Z,5.87
2022-10-20T06:36:54.874Z,6.67
2022-10-20T06:39:24.537Z,6.40
2022-10-20T06:41:53.353Z,6.67
2022-10-20T06:44:22.642Z,6.10
2022-10-20T06:46:52.684Z,6.20
2022-10-20T06:49:20.772Z,6.03
2022-10-20T06:51:48.626Z,7.20
2022-10-20T06:54:16.251Z,6.57
2022-10-20T06:56:43.771Z,6.87
2022-10-20T06:59:13.292Z,7.20
2022-10-20T07:01:42.143Z,6.97
2022-10-20T07:04:15.328Z,6.70
2022-10-20T07:06:45.415Z,7.60
2022-10-20T07:09:15.113Z,7.07
2022-10-20T07:11:43.125Z,6.70
2022-10-20T07:14:12.406Z,7.00
2022-10-20T07:16:40.115Z,7.87
2022-10-20T07:19:07.768Z,8.83
2022-10-20T07:21:40.199Z,8.50
2022-10-20T07:24:09.621Z,8.10
2022-10-20T07:26:39.242Z,7.73
2022-10-20T07:29:07.283Z,7.80
2022-10-20T07:31:37.686Z,8.40
2022-10-20T07:34:20.407Z,7.23
2022-10-20T07:36:54.318Z,7.63
2022-10-20T07:39:22.115Z,7.53
2022-10-20T07:41:49.698Z,7.47
2022-10-20T07:44:18.053Z,7.90
2022-10-20T07:46:45.831Z,6.70
2022-10-20T07:52:02.407Z,8.20
2022-10-20T07:54:30.037Z,7.13
2022-10-20T07:56:57.577Z,7.37
2022-10-20T07:59:25.337Z,7.67
2022-10-20T08:01:57.392Z,7.50
2022-10-20T08:04:26.288Z,7.50
2022-10-20T08:06:53.919Z,8.80
2022-10-20T08:09:22.832Z,8.30
2022-10-20T08:11:54.604Z,8.07
2022-10-20T08:14:23.929Z,8.40
2022-10-20T08:19:48.223Z,9.20
2022-10-20T08:22:16.173Z,8.33
2022-10-20T08:24:45.111Z,9.00
2022-10-20T08:27:12.709Z,9.57
2022-10-20T08:29:40.399Z,9.77
2022-10-20T08:32:08.281Z,9.60
2022-10-20T08:34:35.902Z,9.77
2022-10-20T08:37:03.600Z,10.30
2022-10-20T08:39:31.326Z,9.93
2022-10-20T08:42:08.507Z,11.90
2022-10-20T08:44:38.258Z,10.03
2022-10-20T08:47:15.127Z,11.20
2022-10-20T08:49:45.700Z,11.03
2022-10-20T08:52:15.789Z,10.03
2022-10-20T08:54:43.728Z,10.63
2022-10-20T08:57:23.258Z,10.03
2022-10-20T08:59:53.410Z,9.80
2022-10-20T09:02:21.365Z,11.90
2022-10-20T09:04:52.600Z,9.70
2022-10-20T09:07:26.567Z,11.23
2022-10-20T09:09:58.874Z,10.17
2022-10-20T09:12:31.120Z,11.00
2022-10-20T09:14:58.955Z,9.70
2022-10-20T09:17:26.645Z,10.10
2022-10-20T09:19:58.723Z,10.60
2022-10-20T09:22:33.347Z,9.97
2022-10-20T09:25:03.202Z,10.30
2022-10-20T09:27:35.165Z,10.60
2022-10-20T09:30:15.603Z,12.23
2022-10-20T09:32:56.300Z,9.50
2022-10-20T09:35:27.004Z,9.70
2022-10-20T09:37:59.441Z,10.60
2022-10-20T09:40:27.843Z,10.60
2022-10-20T09:43:00.043Z,10.90
2022-10-20T09:45:30.529Z,9.33
2022-10-20T09:48:04.277Z,9.53
2022-10-20T09:50:34.719Z,9.20
2022-10-20T09:53:05.802Z,9.40
2022-10-20T09:55:36.054Z,10.27
2022-10-20T09:58:06.861Z,9.87
2022-10-20T10:00:39.444Z,10.50
2022-10-20T10:03:20.838Z,9.50
2022-10-20T10:05:52.892Z,8.57
2022-10-20T10:08:22.652Z,10.03
2022-10-20T10:11:00.637Z,10.77
2022-10-20T10:13:32.125Z,10.30
2022-10-20T10:16:02.640Z,9.27
2022-10-20T10:18:30.795Z,11.10
2022-10-20T10:21:01.160Z,10.90
2022-10-20T10:23:30.151Z,11.33
2022-10-20T10:26:02.023Z,10.83
2022-10-20T10:28:38.490Z,11.03
2022-10-20T10:31:22.327Z,9.70
2022-10-20T10:33:52.870Z,10.30
2022-10-20T10:36:34.167Z,10.10
2022-10-20T10:39:03.188Z,9.30
2022-10-20T10:41:51.735Z,10.50
2022-10-20T10:44:34.790Z,10.10
2022-10-20T10:47:15.061Z,9.80
2022-10-20T10:49:54.710Z,9.70
2022-10-20T10:52:35.921Z,9.47
2022-10-20T10:55:30.549Z,10.60
2022-10-20T11:00:56.913Z,11.17
2022-10-20T11:04:03.887Z,10.60
2022-10-20T11:06:38.133Z,12.30
2022-10-20T11:09:20.806Z,10.87
2022-10-20T11:12:15.977Z,11.57
2022-10-20T11:14:58.438Z,10.83
2022-10-20T11:17:43.947Z,10.30
2022-10-20T11:20:27.449Z,11.10
2022-10-20T11:23:22.776Z,11.07
2022-10-20T11:25:57.173Z,10.40
2022-10-20T11:28:32.177Z,11.03
2022-10-20T11:31:00.407Z,12.37
2022-10-20T11:33:39.330Z,10.17
2022-10-20T11:36:15.872Z,10.50
2022-10-20T11:38:47.888Z,10.17
2022-10-20T11:41:19.253Z,9.40
2022-10-20T11:43:54.078Z,9.83
2022-10-20T11:46:26.667Z,10.37
2022-10-20T11:49:00.219Z,9.03
2022-10-20T11:51:56.510Z,10.00
2022-10-20T11:54:44.877Z,9.90
2022-10-20T11:57:24.389Z,9.73
2022-10-20T12:00:11.598Z,9.83
2022-10-20T12:03:13.399Z,9.73
2022-10-20T12:06:09.957Z,10.63
2022-10-20T12:09:21.660Z,9.70
2022-10-20T12:11:54.737Z,10.37
2022-10-20T12:14:28.635Z,8.43
2022-10-20T12:17:21.854Z,10.23
2022-10-20T12:19:51.603Z,9.17
2022-10-20T12:22:40.665Z,8.90
2022-10-20T12:25:36.810Z,8.63
2022-10-20T12:28:43.114Z,9.63
2022-10-20T12:31:10.687Z,9.60
2022-10-20T12:33:42.058Z,9.10
2022-10-20T12:36:34.294Z,9.10
2022-10-20T12:39:16.966Z,10.23
2022-10-20T12:41:56.528Z,10.17
2022-10-20T12:44:24.688Z,10.50
2022-10-20T12:46:59.038Z,9.70
2022-10-20T12:49:31.403Z,9.53
2022-10-20T12:52:00.445Z,8.67
2022-10-20T12:54:35.586Z,9.53
2022-10-20T12:57:06.516Z,9.17
2022-10-20T12:59:40.242Z,9.53
2022-10-20T13:02:47.724Z,9.90
2022-10-20T13:05:49.153Z,10.70
2022-10-20T13:08:29.732Z,10.47
2022-10-20T13:11:41.746Z,9.93
2022-10-20T13:14:33.294Z,10.43
2022-10-20T13:17:07.541Z,8.97
2022-10-20T13:19:44.468Z,10.00
2022-10-20T13:22:37.866Z,9.00
2022-10-20T13:25:14.076Z,10.67
2022-10-20T13:27:43.057Z,11.20
2022-10-20T13:30:19.262Z,10.10
2022-10-20T13:33:11.202Z,10.30
2022-10-20T13:35:51.647Z,11.00
2022-10-20T13:38:25.352Z,9.80
2022-10-20T13:43:39.578Z,10.37
2022-10-20T13:46:22.167Z,11.30
2022-10-20T13:49:13.322Z,11.80
2022-10-20T13:51:45.139Z,11.80
2022-10-20T13:54:22.595Z,11.83
2022-10-20T13:56:51.231Z,12.03
2022-10-20T13:59:24.730Z,12.77
2022-10-20T14:01:55.209Z,12.53
2022-10-20T14:04:28.087Z,11.63
2022-10-20T14:06:56.381Z,10.57
2022-10-20T14:09:26.074Z,11.90
2022-10-20T14:11:57.094Z,12.67
2022-10-20T14:14:28.245Z,12.60
2022-10-20T14:16:58.454Z,11.07
2022-10-20T14:19:28.095Z,13.40
2022-10-20T14:21:57.813Z,11.50
2022-10-20T14:24:31.953Z,10.33
2022-10-20T14:27:01.552Z,11.17
2022-10-20T14:29:35.530Z,11.23
2022-10-20T14:32:03.240Z,11.40
2022-10-20T14:34:37.670Z,12.33
2022-10-20T14:37:08.564Z,11.47
2022-10-20T14:39:38.681Z,11.30
2022-10-20T14:42:20.001Z,12.47
2022-10-20T14:44:50.468Z,12.60
2022-10-20T14:47:19.991Z,11.67
2022-10-20T14:49:52.377Z,11.63
2022-10-20T14:52:23.043Z,11.90
2022-10-20T14:54:51.471Z,11.60
2022-10-20T14:57:31.760Z,12.43
2022-10-20T15:00:03.971Z,12.47
2022-10-20T15:02:33.544Z,12.50
2022-10-20T15:05:23.273Z,13.23
2022-10-20T15:07:51.534Z,12.87
2022-10-20T15:10:21.645Z,13.47
2022-10-20T15:12:52.106Z,13.47
2022-10-20T15:15:23.955Z,13.30
2022-10-20T15:17:53.114Z,13.93
2022-10-20T15:20:33.147Z,13.57
2022-10-20T15:23:02.699Z,12.70
2022-10-20T15:25:32.028Z,13.23
2022-10-20T15:28:00.400Z,15.00
2022-10-20T15:30:30.124Z,14.50
2022-10-20T15:32:57.804Z,12.27
2022-10-20T15:35:25.651Z,14.60
2022-10-20T15:37:54.654Z,14.40
2022-10-20T15:40:22.619Z,15.23
2022-10-20T15:42:50.212Z,14.30
2022-10-20T15:45:19.782Z,14.80
2022-10-20T15:47:48.763Z,15.50
2022-10-20T15:50:18.490Z,16.33
2022-10-20T15:52:48.134Z,15.37
2022-10-20T15:55:22.545Z,15.70
2022-10-20T15:57:51.474Z,14.13
2022-10-20T16:00:20.154Z,15.60
2022-10-20T16:02:50.263Z,14.87
2022-10-20T16:05:19.078Z,15.43
2022-10-20T16:07:47.182Z,15.43
2022-10-20T16:10:15.110Z,14.47
2022-10-20T16:12:42.678Z,14.77
2022-10-20T16:15:12.189Z,14.97
2022-10-20T16:17:39.891Z,14.73
2022-10-20T16:20:10.378Z,14.00
2022-10-20T16:22:38.422Z,14.83
2022-10-20T16:25:07.042Z,14.83
2022-10-20T16:27:35.360Z,12.90
2022-10-20T16:30:04.572Z,15.07
2022-10-20T16:32:34.634Z,15.50
2022-10-20T16:35:03.544Z,15.07
2022-10-20T16:37:33.123Z,16.83
2022-10-20T16:40:00.950Z,15.40
2022-10-20T16:42:30.247Z,16.20
2022-10-20T16:44:58.556Z,16.53
2022-10-20T16:47:26.847Z,15.47
2022-10-20T16:49:54.515Z,15.10
2022-10-20T16:52:22.285Z,15.37
2022-10-20T16:54:51.182Z,14.73
2022-10-20T16:57:18.743Z,14.60
2022-10-20T16:59:49.860Z,14.83
2022-10-20T17:02:18.470Z,16.10
2022-10-20T17:04:49.191Z,15.80
2022-10-20T17:07:16.924Z,17.33
2022-10-20T17:09:44.612Z,15.43
2022-10-20T17:12:13.610Z,16.43
2022-10-20T17:14:41.568Z,17.70
2022-10-20T17:17:09.269Z,17.00
2022-10-20T17:19:36.900Z,17.50
2022-10-20T17:22:04.527Z,18.30
2022-10-20T17:24:32.191Z,17.60
2022-10-20T17:26:59.713Z,16.10
2022-10-20T17:29:28.726Z,17.47
2022-10-20T17:31:56.261Z,15.50
2022-10-20T17:34:23.851Z,16.90
2022-10-20T17:36:51.455Z,16.07
2022-10-20T17:39:21.958Z,16.30
2022-10-20T17:41:49.544Z,17.93
2022-10-20T17:44:17.182Z,15.90
2022-10-20T17:46:46.176Z,15.80
2022-10-20T17:49:14.111Z,15.50
2022-10-20T17:51:43.504Z,15.20
2022-10-20T17:54:11.338Z,16.10
2022-10-20T17:56:40.089Z,15.17
2022-10-20T17:59:08.524Z,15.20
2022-10-20T18:01:37.912Z,16.37
2022-10-20T18:04:09.143Z,16.97
2022-10-20T18:06:37.679Z,17.27
2022-10-20T18:09:10.678Z,16.90
2022-10-20T18:11:40.073Z,17.90
2022-10-20T18:14:07.723Z,17.90
2022-10-20T18:16:37.978Z,18.30
2022-10-20T18:19:07.894Z,20.80
2022-10-20T18:21:36.115Z,33.97
2022-10-20T18:24:06.432Z,53.70
2022-10-20T18:26:36.045Z,73.30
2022-10-20T18:29:05.033Z,20.17
2022-10-20T18:31:34.714Z,19.37
2022-10-20T18:34:06.867Z,18.80
2022-10-20T18:36:40.706Z,26.00
2022-10-20T18:39:11.557Z,20.63
2022-10-20T18:41:41.113Z,17.33
2022-10-20T18:44:12.451Z,18.70
2022-10-20T18:46:40.858Z,16.23
2022-10-20T18:49:10.082Z,16.57
2022-10-20T18:51:39.049Z,17.50
2022-10-20T18:54:08.482Z,19.60
2022-10-20T18:56:36.916Z,17.23
2022-10-20T18:59:09.130Z,17.83
2022-10-20T19:01:38.527Z,16.03
2022-10-20T19:04:07.485Z,16.97
2022-10-20T19:06:37.641Z,16.13
2022-10-20T19:09:09.047Z,16.93
2022-10-20T19:11:39.128Z,16.10
2022-10-20T19:14:09.440Z,16.27
2022-10-20T19:16:37.826Z,16.20
2022-10-20T19:19:07.973Z,17.30
2022-10-20T19:21:38.996Z,15.93
2022-10-20T19:24:10.178Z,16.13
2022-10-20T19:26:40.454Z,16.03
2022-10-20T19:29:10.817Z,17.07
2022-10-20T19:31:41.256Z,16.60
2022-10-20T19:34:11.338Z,16.97
2022-10-20T19:36:40.442Z,16.53
2022-10-20T19:39:12.015Z,17.03
2022-10-20T19:41:39.870Z,15.97
2022-10-20T19:44:07.914Z,17.23
2022-10-20T19:46:35.473Z,16.63
2022-10-20T19:49:03.217Z,17.03
2022-10-20T19:51:31.063Z,17.40
2022-10-20T19:53:59.453Z,17.60
2022-10-20T19:56:28.510Z,16.93
2022-10-20T19:58:56.310Z,17.30
2022-10-20T20:01:24.189Z,17.50
2022-10-20T20:03:51.937Z,16.33
2022-10-20T20:06:21.964Z,18.23
2022-10-20T20:08:52.703Z,15.63
2022-10-20T20:11:26.287Z,16.57
2022-10-20T20:13:57.964Z,17.57
2022-10-20T20:16:26.058Z,18.27
2022-10-20T20:18:54.164Z,18.20
2022-10-20T20:21:23.002Z,17.70
2022-10-20T20:23:59.326Z,17.87
2022-10-20T20:26:27.975Z,17.93
2022-10-20T20:28:57.553Z,17.60
2022-10-20T20:31:25.781Z,17.80
2022-10-20T20:33:54.306Z,18.87
2022-10-20T20:36:22.531Z,16.87
2022-10-20T20:38:52.578Z,17.63
2022-10-20T20:41:24.463Z,19.20
2022-10-20T20:43:52.132Z,18.30
2022-10-20T20:46:26.863Z,17.97
2022-10-20T20:48:54.526Z,18.60
2022-10-20T20:51:22.996Z,18.40
2022-10-20T20:53:50.751Z,18.23
2022-10-20T20:56:21.779Z,17.80
2022-10-20T20:58:55.004Z,16.77
2022-10-20T21:01:27.283Z,17.90
2022-10-20T21:03:56.212Z,18.40
2022-10-20T21:06:33.086Z,16.47
2022-10-20T21:09:02.436Z,18.40
2022-10-20T21:11:30.239Z,16.97
2022-10-20T21:13:58.868Z,16.20
2022-10-20T21:16:30.280Z,16.80
2022-10-20T21:18:59.797Z,17.03
2022-10-20T21:21:29.611Z,16.77
2022-10-20T21:23:58.073Z,16.50
2022-10-20T21:26:26.397Z,17.37
2022-10-20T21:28:54.694Z,17.47
2022-10-20T21:31:24.953Z,18.27
2022-10-20T21:33:55.856Z,17.90
2022-10-20T21:36:24.036Z,16.83
2022-10-20T21:38:52.201Z,17.70
2022-10-20T21:41:21.359Z,17.10
2022-10-20T21:43:50.772Z,17.00
2022-10-20T21:46:20.622Z,16.50
2022-10-20T21:48:51.007Z,16.50
2022-10-20T21:51:23.022Z,17.10
2022-10-20T21:53:51.136Z,16.50
2022-10-20T21:56:18.665Z,15.53
2022-10-20T21:58:46.372Z,17.77
2022-10-20T22:01:16.350Z,17.10
2022-10-20T22:03:44.974Z,16.70
2022-10-20T22:06:14.598Z,15.70
2022-10-20T22:08:45.762Z,15.80
2022-10-20T22:11:15.589Z,14.90
2022-10-20T22:13:43.497Z,15.70
2022-10-20T22:16:14.954Z,16.90
2022-10-20T22:18:42.774Z,16.13
2022-10-20T22:21:13.698Z,15.57
2022-10-20T22:23:43.433Z,15.97
2022-10-20T22:26:12.006Z,16.30
2022-10-20T22:28:39.757Z,14.60
2022-10-20T22:31:08.234Z,15.40
2022-10-20T22:33:36.258Z,15.93
2022-10-20T22:36:03.970Z,16.77
2022-10-20T22:38:32.077Z,16.07
2022-10-20T22:41:01.437Z,16.30
2022-10-20T22:43:29.814Z,15.47
2022-10-20T22:45:57.666Z,15.60
2022-10-20T22:48:25.630Z,16.87
2022-10-20T22:50:53.269Z,13.80
2022-10-20T22:53:20.851Z,14.33
2022-10-20T22:55:48.417Z,14.40
2022-10-20T22:58:17.352Z,13.63
2022-10-20T23:00:44.964Z,13.23
2022-10-20T23:03:12.551Z,15.00
2022-10-20T23:05:40.079Z,14.03
2022-10-20T23:08:07.862Z,14.03
2022-10-20T23:10:35.396Z,13.47
2022-10-20T23:13:03.080Z,14.60
2022-10-20T23:15:32.050Z,12.43
2022-10-20T23:17:59.621Z,14.77
2022-10-20T23:20:27.307Z,14.10
2022-10-20T23:22:54.926Z,13.30
2022-10-20T23:25:22.476Z,14.47
2022-10-20T23:27:50.034Z,13.73
2022-10-20T23:30:17.711Z,14.07
2022-10-20T23:32:46.707Z,14.33
2022-10-20T23:35:14.513Z,13.67
2022-10-20T23:37:42.152Z,13.67
2022-10-20T23:40:10.695Z,14.37
2022-10-20T23:42:38.275Z,12.77
2022-10-20T23:45:06.818Z,12.87
2022-10-20T23:47:34.589Z,12.60
2022-10-20T23:50:03.988Z,13.20
2022-10-20T23:52:31.583Z,13.30
2022-10-20T23:54:59.414Z,13.07
2022-10-20T23:57:27.071Z,13.40
2022-10-20T23:59:54.707Z,11.30
